Madison, WI

4:29 AM CDT on July 07, 2015 (GMT -0500)
Atmospheric, Oceanic and Space Sciences Building | | Change Station
CLOSE
Current Station
Personal Weather Station
Location: Madison, WI
Elevation: 896 ft
Nearby Weather Stations

Elev 896 ft 43.07 °N, 89.41 °W | Updated 4 minutes ago

Overcast
Overcast
60.9 °F
Feels Like 60.9 °F
N
14.0
Wind Variable Wind from NNE
Gusts 19.3 mph

Today
High -- | Low -- °F
--% Chance of Precip.
Yesterday
High -- | Low -- °F
Precip. -- in
5:25 AM 8:39 PM
Waning Gibbous, 66% visible
Pressure 29.91 in
Visibility 3.0 miles
Clouds Few 3300 ft
Overcast 4200 ft
Dew Point 57 °F
Humidity 87%
Rainfall 0.94 in
Snow Depth Not available.
UV 0 out of 12
Pollen 4.50 out of 12
Air Quality Not available.
Flu Activity Not available.
METAR KMSN 070853Z AUTO 02010KT 3SM HZ FEW033 OVC042 17/14 A2992 RMK AO2 SLP129 T01670139 51010 TSNO

More Conditions Fewer Conditions

Pressure 29.91 in
Visibility 3.0 miles
Clouds Few 3300 ft
Overcast 4200 ft
Dew Point 57 °F
Humidity 87%
Rainfall 0.94 in
Snow Depth Not available.
UV 0 out of 12
Pollen 4.50 out of 12
Air Quality Not available.
Flu Activity Not available.
METAR KMSN 070853Z AUTO 02010KT 3SM HZ FEW033 OVC042 17/14 A2992 RMK AO2 SLP129 T01670139 51010 TSNO

More Conditions Fewer Conditions

10-Day Weather Forecast

×

Almanac

Astronomy

Jul. 07, 2015 Rise Set
Actual Time
Civil Twilight
Nautical Twilight
Astronomical Twilight
Moon
Length of Visible Light
Length of Day
Tomorrow will be .
, % of the Moon is Illuminated

Today's Extremes

State Highs State Lows

Community

WunderPhotos

Upload Photos

1,835,758 photos uploaded!

WunderBlogs® & News

Nearby

Air Quality

  Air Quality AQ Index Pollutant
Not available.

Snow Depth

Station Depth Elevation

Earthquake Activity

City Distance Mag. Time & Date
Minimum magnitude displayed is 2.5.

Coastal Water Temperatures

Place Temperature

Stations

Nearby Weather Stations

Station Location Temp. Windchill Dew Point Humidity Wind Precip. Elev Updated Type